Time;durP1;ratioP1;P1;durP2;ratioP2;P2;SDS_P1;SDS_P2;PMS_P1;PMS_P2;Temp;Humidity;BMP_temperature;BMP_pressure;BME280_temperature;BME280_humidity;BME280_pressure;Samples;Min_cycle;Max_cycle;Signal;HPM_P1;HPM_P2
2022/10/10 00:02:22;;;;;;;21.43;20.23;;;;;;;;;;5113588;27;20470;-79
2022/10/10 00:04:51;;;;;;;20.13;18.93;;;;;;;;;;5114753;28;20398;-79
2022/10/10 00:07:19;;;;;;;19.67;18.57;;;;;;;;;;5114597;28;20443;-79
2022/10/10 00:09:47;;;;;;;19.77;18.60;;;;;;;;;;5114838;28;20802;-79
2022/10/10 00:12:15;;;;;;;19.70;18.60;;;;;;;;;;5114039;28;20425;-79
2022/10/10 00:14:42;;;;;;;19.70;18.50;;;;;;;;;;5113808;27;20474;-79
2022/10/10 00:17:09;;;;;;;19.83;18.77;;;;;;;;;;5114889;28;20461;-78
2022/10/10 00:19:37;;;;;;;19.47;18.37;;;;;;;;;;5114486;28;20457;-79
2022/10/10 00:22:04;;;;;;;20.03;18.73;;;;;;;;;;5117371;28;20433;-79
2022/10/10 00:24:31;;;;;;;19.97;18.77;;;;;;;;;;5118423;28;20824;-79
2022/10/10 00:27:00;;;;;;;20.50;19.10;;;;;;;;;;5118418;27;20463;-79
2022/10/10 00:29:27;;;;;;;20.17;18.77;;;;;;;;;;5118307;27;20803;-79
2022/10/10 00:31:54;;;;;;;19.53;18.53;;;;;;;;;;5117578;28;20202;-78
2022/10/10 00:34:22;;;;;;;19.40;18.37;;;;;;;;;;5117577;28;20975;-79
2022/10/10 00:36:49;;;;;;;19.37;18.27;;;;;;;;;;5118437;28;20428;-78
2022/10/10 00:39:17;;;;;;;19.73;18.73;;;;;;;;;;5118070;27;20494;-79
2022/10/10 00:41:44;;;;;;;19.63;18.43;;;;;;;;;;5117741;27;20447;-79
2022/10/10 00:44:13;;;;;;;19.80;18.60;;;;;;;;;;5118552;28;20469;-79
2022/10/10 00:46:41;;;;;;;19.90;18.60;;;;;;;;;;5118119;28;20459;-79
2022/10/10 00:49:11;;;;;;;19.60;18.30;;;;;;;;;;5118073;28;20454;-79
2022/10/10 00:51:38;;;;;;;21.00;19.80;;;;;;;;;;5117904;28;20395;-79
2022/10/10 00:54:09;;;;;;;19.57;18.57;;;;;;;;;;5118583;28;20471;-79
2022/10/10 00:56:38;;;;;;;20.10;19.00;;;;;;;;;;5118321;27;20414;-79
2022/10/10 00:59:07;;;;;;;20.60;19.03;;;;;;;;;;5117953;28;20463;-79
2022/10/10 01:01:36;;;;;;;19.67;18.47;;;;;;;;;;5117391;28;20451;-79
2022/10/10 01:04:03;;;;;;;19.50;18.30;;;;;;;;;;5116964;27;20462;-79
2022/10/10 01:06:31;;;;;;;19.87;18.67;;;;;;;;;;5117864;28;20805;-78
2022/10/10 01:08:58;;;;;;;19.70;18.60;;;;;;;;;;5117929;27;20446;-79
2022/10/10 01:11:38;;;;;;;19.50;18.30;;;;;;;;;;5117645;28;20423;-79
2022/10/10 01:14:09;;;;;;;19.47;18.17;;;;;;;;;;5117889;28;20461;-79
2022/10/10 01:16:41;;;;;;;20.03;18.63;;;;;;;;;;5117855;28;20788;-78
2022/10/10 01:19:16;;;;;;;19.23;18.23;;;;;;;;;;5117080;28;20451;-79
2022/10/10 01:21:49;;;;;;;19.33;18.30;;;;;;;;;;5116821;28;20413;-79
2022/10/10 01:24:29;;;;;;;19.13;18.10;;;;;;;;;;5116992;27;20453;-79
2022/10/10 01:27:20;;;;;;;19.47;18.47;;;;;;;;;;5118168;28;20431;-79
2022/10/10 01:29:52;;;;;;;19.87;18.60;;;;;;;;;;5101904;28;20422;-79
2022/10/10 01:32:23;;;;;;;20.43;19.13;;;;;;;;;;5115900;28;20540;-79
2022/10/10 01:34:57;;;;;;;20.00;18.90;;;;;;;;;;5116887;28;20398;-78
2022/10/10 01:37:29;;;;;;;19.87;18.67;;;;;;;;;;5116774;28;20399;-78
2022/10/10 01:39:59;;;;;;;19.37;18.13;;;;;;;;;;5116576;27;20499;-79
2022/10/10 01:42:29;;;;;;;19.50;18.40;;;;;;;;;;5116123;28;20809;-78
2022/10/10 01:44:58;;;;;;;20.00;18.90;;;;;;;;;;5117000;28;20415;-78
2022/10/10 01:47:25;;;;;;;19.60;18.60;;;;;;;;;;5116723;28;20426;-79
2022/10/10 01:49:54;;;;;;;20.05;18.95;;;;;;;;;;5117090;28;20897;-78
2022/10/10 01:52:28;;;;;;;20.10;19.00;;;;;;;;;;5116045;27;20224;-79
2022/10/10 01:55:04;;;;;;;20.33;19.00;;;;;;;;;;5117070;28;20432;-78
2022/10/10 01:57:34;;;;;;;20.65;19.13;;;;;;;;;;5116865;28;20584;-78
2022/10/10 02:00:06;;;;;;;19.90;18.57;;;;;;;;;;5116836;27;20633;-79
2022/10/10 02:02:38;;;;;;;19.73;18.67;;;;;;;;;;5115786;27;20462;-79
2022/10/10 02:05:09;;;;;;;18.98;18.08;;;;;;;;;;5116173;28;20431;-78
2022/10/10 02:07:39;;;;;;;20.57;19.33;;;;;;;;;;5116150;28;20290;-78
2022/10/10 02:10:08;;;;;;;20.03;18.57;;;;;;;;;;5117022;27;20409;-78
2022/10/10 02:12:37;;;;;;;19.87;18.77;;;;;;;;;;5116214;28;20949;-79
2022/10/10 02:15:09;;;;;;;20.03;18.80;;;;;;;;;;5116681;28;20434;-79
2022/10/10 02:17:38;;;;;;;20.05;18.85;;;;;;;;;;5116755;28;20778;-79
2022/10/10 02:20:07;;;;;;;20.93;19.73;;;;;;;;;;5116417;28;20218;-79
2022/10/10 02:22:34;;;;;;;20.80;19.43;;;;;;;;;;5115387;27;20463;-79
2022/10/10 02:25:02;;;;;;;19.73;18.57;;;;;;;;;;5116540;28;20429;-79
2022/10/10 02:27:32;;;;;;;19.80;18.65;;;;;;;;;;5116307;27;20768;-79
2022/10/10 02:30:01;;;;;;;20.23;18.93;;;;;;;;;;5115361;28;20680;-78
2022/10/10 02:32:33;;;;;;;19.75;18.60;;;;;;;;;;5114761;28;20480;-79
2022/10/10 02:35:04;;;;;;;20.40;19.15;;;;;;;;;;5115704;28;20201;-79
2022/10/10 02:37:33;;;;;;;20.63;19.33;;;;;;;;;;5115254;27;20213;-79
2022/10/10 02:40:02;;;;;;;20.40;19.20;;;;;;;;;;5115956;28;20454;-79
2022/10/10 02:42:30;;;;;;;19.83;18.65;;;;;;;;;;5114924;28;20467;-79
2022/10/10 02:44:57;;;;;;;19.75;18.75;;;;;;;;;;5115608;27;20205;-79
2022/10/10 02:47:25;;;;;;;19.83;18.63;;;;;;;;;;5115945;28;20204;-79
2022/10/10 02:49:53;;;;;;;19.87;18.83;;;;;;;;;;5115571;27;20202;-79
2022/10/10 02:52:21;;;;;;;19.75;18.60;;;;;;;;;;5114619;27;20450;-79
2022/10/10 02:54:48;;;;;;;20.37;19.17;;;;;;;;;;5116036;28;20190;-79
2022/10/10 02:57:16;;;;;;;19.10;18.10;;;;;;;;;;5115230;28;20961;-79
2022/10/10 02:59:44;;;;;;;20.33;19.03;;;;;;;;;;5115961;28;20501;-78
2022/10/10 03:02:11;;;;;;;20.13;19.00;;;;;;;;;;5115087;28;20454;-78
2022/10/10 03:04:39;;;;;;;20.60;19.40;;;;;;;;;;5115738;28;20204;-78
2022/10/10 03:07:07;;;;;;;19.77;18.77;;;;;;;;;;5115722;27;20894;-78
2022/10/10 03:09:35;;;;;;;19.77;18.63;;;;;;;;;;5115559;27;20463;-79
2022/10/10 03:12:02;;;;;;;20.50;19.40;;;;;;;;;;5115244;28;20458;-79
2022/10/10 03:14:29;;;;;;;19.73;18.73;;;;;;;;;;5116149;28;20432;-79
2022/10/10 03:16:57;;;;;;;20.27;19.07;;;;;;;;;;5116418;28;20785;-79
2022/10/10 03:19:24;;;;;;;20.27;19.10;;;;;;;;;;5114955;28;20483;-78
2022/10/10 03:21:52;;;;;;;19.83;18.73;;;;;;;;;;5114794;28;20914;-79
2022/10/10 03:24:21;;;;;;;20.90;19.50;;;;;;;;;;5115380;28;20468;-79
2022/10/10 03:26:48;;;;;;;21.30;20.10;;;;;;;;;;5115151;28;20578;-78
2022/10/10 03:29:16;;;;;;;20.83;19.30;;;;;;;;;;5115382;28;20444;-78
2022/10/10 03:31:43;;;;;;;19.93;18.83;;;;;;;;;;5114808;28;20888;-79
2022/10/10 03:34:11;;;;;;;20.42;19.42;;;;;;;;;;5114674;27;20849;-79
2022/10/10 03:36:38;;;;;;;20.33;19.13;;;;;;;;;;5115394;28;20198;-79
2022/10/10 03:39:06;;;;;;;20.73;19.63;;;;;;;;;;5116063;28;20217;-79
2022/10/10 03:41:36;;;;;;;20.50;19.40;;;;;;;;;;5114636;28;20430;-79
2022/10/10 03:44:03;;;;;;;19.90;18.77;;;;;;;;;;5114651;27;20969;-79
2022/10/10 03:46:30;;;;;;;19.90;18.90;;;;;;;;;;5115006;28;20444;-79
2022/10/10 03:48:57;;;;;;;20.10;18.90;;;;;;;;;;5114670;28;20430;-79
2022/10/10 03:51:25;;;;;;;19.63;18.63;;;;;;;;;;5115085;28;20926;-78
2022/10/10 03:53:52;;;;;;;20.77;19.30;;;;;;;;;;5114735;27;20486;-79
2022/10/10 03:56:19;;;;;;;19.27;18.27;;;;;;;;;;5117614;28;20459;-79
2022/10/10 03:58:48;;;;;;;19.97;18.70;;;;;;;;;;5119039;28;20451;-79
2022/10/10 04:01:16;;;;;;;20.20;18.90;;;;;;;;;;5118938;28;20440;-79
2022/10/10 04:03:43;;;;;;;20.60;19.40;;;;;;;;;;5119043;28;20467;-79
2022/10/10 04:06:10;;;;;;;21.65;20.15;;;;;;;;;;5118768;28;20427;-79
2022/10/10 04:08:38;;;;;;;20.23;19.13;;;;;;;;;;5118687;27;20251;-79
2022/10/10 04:11:05;;;;;;;20.15;19.00;;;;;;;;;;5118712;28;20448;-79
2022/10/10 04:13:33;;;;;;;20.57;19.27;;;;;;;;;;5118557;27;20232;-78
2022/10/10 04:16:02;;;;;;;20.00;18.90;;;;;;;;;;5118676;28;20457;-79
2022/10/10 04:18:29;;;;;;;20.20;18.90;;;;;;;;;;5118426;27;20217;-79
2022/10/10 04:20:57;;;;;;;20.90;19.53;;;;;;;;;;5118021;28;20466;-79
2022/10/10 04:23:24;;;;;;;21.50;19.70;;;;;;;;;;5118219;28;20789;-80
2022/10/10 04:25:52;;;;;;;19.97;18.77;;;;;;;;;;5119035;28;20457;-78
2022/10/10 04:28:20;;;;;;;19.65;18.55;;;;;;;;;;5119186;28;20537;-78
2022/10/10 04:30:47;;;;;;;20.30;19.15;;;;;;;;;;5118431;27;20216;-79
2022/10/10 04:33:16;;;;;;;19.50;18.33;;;;;;;;;;5117845;28;20704;-79
2022/10/10 04:35:43;;;;;;;19.90;18.80;;;;;;;;;;5118233;28;20201;-78
2022/10/10 04:38:11;;;;;;;20.35;19.15;;;;;;;;;;5118620;28;20447;-78
2022/10/10 04:40:38;;;;;;;20.00;18.80;;;;;;;;;;5117989;27;20241;-78
2022/10/10 04:43:05;;;;;;;20.13;18.88;;;;;;;;;;5117611;28;20466;-79
2022/10/10 04:45:33;;;;;;;20.50;19.20;;;;;;;;;;5118776;28;20205;-79
2022/10/10 04:48:00;;;;;;;20.63;19.43;;;;;;;;;;5118497;28;20790;-79
2022/10/10 04:50:29;;;;;;;20.95;19.30;;;;;;;;;;5117721;27;20453;-79
2022/10/10 04:52:56;;;;;;;21.50;20.30;;;;;;;;;;5117653;28;20221;-79
2022/10/10 04:55:24;;;;;;;20.40;19.20;;;;;;;;;;5118205;28;20454;-79
2022/10/10 04:57:51;;;;;;;20.58;19.38;;;;;;;;;;5118560;28;20201;-79
2022/10/10 05:00:18;;;;;;;20.67;19.48;;;;;;;;;;5117965;27;20232;-79
2022/10/10 05:02:46;;;;;;;21.20;19.90;;;;;;;;;;5117697;28;20239;-79
2022/10/10 05:05:13;;;;;;;20.63;19.43;;;;;;;;;;5118380;28;20429;-79
2022/10/10 05:07:42;;;;;;;20.87;19.33;;;;;;;;;;5118912;28;20450;-79
2022/10/10 05:10:10;;;;;;;21.25;20.05;;;;;;;;;;5117954;27;20479;-79
2022/10/10 05:12:37;;;;;;;20.97;19.67;;;;;;;;;;5117702;28;20236;-79
2022/10/10 05:15:05;;;;;;;21.45;20.08;;;;;;;;;;5117591;28;20440;-79
2022/10/10 05:17:32;;;;;;;20.42;19.33;;;;;;;;;;5117781;28;20349;-79
2022/10/10 05:20:00;;;;;;;21.13;19.87;;;;;;;;;;5118544;28;20539;-79
2022/10/10 05:22:27;;;;;;;21.37;20.03;;;;;;;;;;5116756;27;21021;-78
2022/10/10 05:24:58;;;;;;;21.80;20.47;;;;;;;;;;5118049;28;20454;-78
2022/10/10 05:27:25;;;;;;;20.60;19.30;;;;;;;;;;5117622;28;20436;-78
2022/10/10 05:29:54;;;;;;;21.20;19.80;;;;;;;;;;5117482;28;20443;-79
2022/10/10 05:32:21;;;;;;;21.73;20.15;;;;;;;;;;5116410;27;20233;-80
2022/10/10 05:34:49;;;;;;;22.33;20.92;;;;;;;;;;5118053;28;20205;-79
2022/10/10 05:37:16;;;;;;;21.50;20.30;;;;;;;;;;5117390;28;20212;-79
2022/10/10 05:39:44;;;;;;;21.15;19.85;;;;;;;;;;5117518;28;20226;-79
2022/10/10 05:42:13;;;;;;;22.50;20.77;;;;;;;;;;5116588;28;20296;-79
2022/10/10 05:44:41;;;;;;;22.52;20.88;;;;;;;;;;5117199;27;20218;-79
2022/10/10 05:47:09;;;;;;;21.55;20.17;;;;;;;;;;5117365;28;20220;-79
2022/10/10 05:49:36;;;;;;;20.85;19.55;;;;;;;;;;5117499;28;20205;-79
2022/10/10 05:52:04;;;;;;;23.20;21.50;;;;;;;;;;5116784;28;20208;-79
2022/10/10 05:54:31;;;;;;;21.73;20.42;;;;;;;;;;5117015;28;20484;-79
2022/10/10 05:56:58;;;;;;;21.17;19.87;;;;;;;;;;5116750;27;20221;-79
2022/10/10 05:59:28;;;;;;;21.00;19.60;;;;;;;;;;5115929;28;20435;-75
2022/10/10 06:01:56;;;;;;;21.00;19.80;;;;;;;;;;5115238;28;20420;-75
2022/10/10 06:04:23;;;;;;;21.17;19.97;;;;;;;;;;5115823;28;20477;-78
2022/10/10 06:06:50;;;;;;;21.38;19.88;;;;;;;;;;5117088;28;20428;-79
2022/10/10 06:09:18;;;;;;;21.93;20.63;;;;;;;;;;5117176;28;20207;-79
2022/10/10 06:11:45;;;;;;;21.53;20.10;;;;;;;;;;5115253;27;20933;-74
2022/10/10 06:14:13;;;;;;;21.45;19.90;;;;;;;;;;5115175;28;20474;-75
2022/10/10 06:16:44;;;;;;;20.90;19.60;;;;;;;;;;5115370;28;20228;-75
2022/10/10 06:19:11;;;;;;;21.00;19.80;;;;;;;;;;5114896;28;20200;-75
2022/10/10 06:21:38;;;;;;;22.17;20.52;;;;;;;;;;5114309;27;20263;-75
2022/10/10 06:24:07;;;;;;;21.50;20.23;;;;;;;;;;5115561;28;20234;-75
2022/10/10 06:26:34;;;;;;;21.30;19.67;;;;;;;;;;5115405;28;20213;-75
2022/10/10 06:29:02;;;;;;;20.70;19.30;;;;;;;;;;5115844;28;20223;-75
2022/10/10 06:31:29;;;;;;;20.10;19.00;;;;;;;;;;5114749;28;20204;-75
2022/10/10 06:33:58;;;;;;;21.10;19.60;;;;;;;;;;5114464;27;20260;-75
2022/10/10 06:36:25;;;;;;;20.50;19.23;;;;;;;;;;5114940;28;20437;-75
2022/10/10 06:38:53;;;;;;;20.70;19.50;;;;;;;;;;5114965;28;20680;-75
2022/10/10 06:41:20;;;;;;;20.70;19.20;;;;;;;;;;5114032;28;20457;-75
2022/10/10 06:43:48;;;;;;;21.60;20.30;;;;;;;;;;5114362;27;20484;-75
2022/10/10 06:46:15;;;;;;;20.77;19.37;;;;;;;;;;5115165;28;20450;-75
2022/10/10 06:48:42;;;;;;;20.20;19.10;;;;;;;;;;5114840;28;20935;-75
2022/10/10 06:51:13;;;;;;;20.17;19.07;;;;;;;;;;5114453;28;20451;-75
2022/10/10 06:53:40;;;;;;;20.60;19.07;;;;;;;;;;5114405;27;20495;-75
2022/10/10 06:56:08;;;;;;;20.47;19.27;;;;;;;;;;5115255;28;20477;-75
2022/10/10 06:58:36;;;;;;;21.00;19.80;;;;;;;;;;5114606;28;20443;-75
2022/10/10 07:01:04;;;;;;;20.00;18.40;;;;;;;;;;5113628;28;20483;-75
2022/10/10 07:03:31;;;;;;;21.23;19.57;;;;;;;;;;5114353;27;20486;-75
2022/10/10 07:05:59;;;;;;;19.53;18.33;;;;;;;;;;5114338;28;20422;-75
2022/10/10 07:08:28;;;;;;;19.30;18.20;;;;;;;;;;5114377;28;20443;-74
2022/10/10 07:10:56;;;;;;;19.63;18.63;;;;;;;;;;5113697;28;21012;-75
2022/10/10 07:13:23;;;;;;;19.63;18.63;;;;;;;;;;5114112;28;20457;-75
2022/10/10 07:15:52;;;;;;;20.50;19.10;;;;;;;;;;5113969;27;20445;-77
2022/10/10 07:18:19;;;;;;;19.23;18.33;;;;;;;;;;5114237;28;20931;-74
2022/10/10 07:20:46;;;;;;;20.07;18.87;;;;;;;;;;5114324;28;20458;-75
2022/10/10 07:23:14;;;;;;;19.30;18.00;;;;;;;;;;5113678;28;20997;-74
2022/10/10 07:25:43;;;;;;;18.70;17.63;;;;;;;;;;5113745;27;20502;-75
2022/10/10 07:28:10;;;;;;;19.50;18.33;;;;;;;;;;5113585;28;20463;-75
2022/10/10 07:30:40;;;;;;;19.73;18.50;;;;;;;;;;5112698;28;20469;-75
2022/10/10 07:33:08;;;;;;;18.50;17.50;;;;;;;;;;5113466;28;20441;-75
2022/10/10 07:35:35;;;;;;;19.60;18.37;;;;;;;;;;5113695;27;20464;-75
2022/10/10 07:38:02;;;;;;;19.73;18.57;;;;;;;;;;5114020;28;20447;-75
2022/10/10 07:40:30;;;;;;;20.03;18.60;;;;;;;;;;5113842;28;20497;-75
2022/10/10 07:42:59;;;;;;;19.57;18.40;;;;;;;;;;5113504;28;20486;-75
2022/10/10 07:45:26;;;;;;;19.63;18.43;;;;;;;;;;5117000;27;20468;-79
2022/10/10 07:47:54;;;;;;;19.00;17.90;;;;;;;;;;5116058;28;20935;-75
2022/10/10 07:50:23;;;;;;;18.87;17.67;;;;;;;;;;5113566;28;20447;-75
2022/10/10 07:52:51;;;;;;;19.30;18.13;;;;;;;;;;5114437;28;20446;-75
2022/10/10 07:55:18;;;;;;;19.20;17.80;;;;;;;;;;5113806;27;20454;-75
2022/10/10 07:57:46;;;;;;;19.30;18.20;;;;;;;;;;5114380;28;20432;-75
2022/10/10 08:00:16;;;;;;;19.40;18.20;;;;;;;;;;5114144;28;20452;-76
2022/10/10 08:02:43;;;;;;;18.17;17.17;;;;;;;;;;5113560;28;20472;-75
2022/10/10 08:05:11;;;;;;;19.10;17.93;;;;;;;;;;5113790;28;20418;-75
2022/10/10 08:07:39;;;;;;;19.90;18.60;;;;;;;;;;5113578;27;20458;-75
2022/10/10 08:10:07;;;;;;;19.63;18.33;;;;;;;;;;5113707;28;20950;-75
2022/10/10 08:12:34;;;;;;;19.40;18.20;;;;;;;;;;5113001;28;20878;-75
2022/10/10 08:15:01;;;;;;;19.10;18.00;;;;;;;;;;5114332;28;20477;-75
2022/10/10 08:17:30;;;;;;;20.43;18.60;;;;;;;;;;5113331;27;20455;-75
2022/10/10 08:19:57;;;;;;;19.87;18.40;;;;;;;;;;5114683;28;20442;-75
2022/10/10 08:22:25;;;;;;;19.80;18.50;;;;;;;;;;5112965;28;20458;-75
2022/10/10 08:24:52;;;;;;;19.47;18.37;;;;;;;;;;5114796;28;20418;-76
2022/10/10 08:42:40;;;;;;;18.17;17.07;;;;;;;;;;5115636;28;20800;-76
2022/10/10 08:45:12;;;;;;;20.50;19.40;;;;;;;;;;5117595;28;20409;-76
2022/10/10 08:47:42;;;;;;;21.00;19.40;;;;;;;;;;5117257;28;20910;-75
2022/10/10 08:50:14;;;;;;;20.37;18.97;;;;;;;;;;5117151;28;20439;-76
2022/10/10 08:52:44;;;;;;;20.87;19.47;;;;;;;;;;5116542;28;20970;-75
2022/10/10 08:55:15;;;;;;;21.50;19.93;;;;;;;;;;5117025;28;20439;-75
2022/10/10 08:57:48;;;;;;;21.90;20.10;;;;;;;;;;5117592;28;20782;-75
2022/10/10 09:00:17;;;;;;;20.30;19.10;;;;;;;;;;5117130;28;20483;-75
2022/10/10 09:02:48;;;;;;;20.83;19.27;;;;;;;;;;5116367;28;20434;-76
2022/10/10 09:05:17;;;;;;;20.30;18.90;;;;;;;;;;5116816;28;20425;-76
2022/10/10 09:07:53;;;;;;;20.10;18.87;;;;;;;;;;5116850;28;20451;-75
2022/10/10 09:10:28;;;;;;;21.17;19.80;;;;;;;;;;5117446;28;20803;-76
2022/10/10 09:13:00;;;;;;;20.00;18.50;;;;;;;;;;5116269;28;20498;-76
2022/10/10 09:15:31;;;;;;;20.83;19.40;;;;;;;;;;5116880;28;20418;-76
2022/10/10 09:18:03;;;;;;;20.50;19.30;;;;;;;;;;5116858;28;20450;-76
2022/10/10 09:20:38;;;;;;;20.87;19.40;;;;;;;;;;5116779;28;20443;-76
2022/10/10 09:23:09;;;;;;;21.00;19.70;;;;;;;;;;5116482;28;20446;-80
2022/10/10 09:25:39;;;;;;;20.93;19.43;;;;;;;;;;5117072;28;20404;-76
2022/10/10 09:28:09;;;;;;;21.50;20.20;;;;;;;;;;5116357;28;20529;-76
2022/10/10 09:30:38;;;;;;;20.73;19.50;;;;;;;;;;5116392;28;20436;-75
2022/10/10 09:33:08;;;;;;;20.93;19.70;;;;;;;;;;5116009;28;20434;-76
2022/10/10 09:35:38;;;;;;;21.50;20.20;;;;;;;;;;5117929;28;20437;-83
2022/10/10 09:38:14;;;;;;;21.00;19.80;;;;;;;;;;5117560;28;20426;-76
2022/10/10 09:40:44;;;;;;;22.27;20.80;;;;;;;;;;5115794;27;20979;-77
2022/10/10 09:43:17;;;;;;;22.10;20.67;;;;;;;;;;5128526;27;20468;-76
2022/10/10 09:45:47;;;;;;;21.90;20.30;;;;;;;;;;5137127;27;20436;-76
2022/10/10 09:48:14;;;;;;;21.67;20.37;;;;;;;;;;5139322;27;20753;-76
2022/10/10 09:50:41;;;;;;;21.43;20.13;;;;;;;;;;5137112;27;20427;-82
2022/10/10 09:53:12;;;;;;;20.53;19.33;;;;;;;;;;5136170;27;20490;-78
2022/10/10 09:55:40;;;;;;;20.10;18.90;;;;;;;;;;5136916;27;20425;-77
2022/10/10 09:58:12;;;;;;;19.90;18.50;;;;;;;;;;5136416;27;20434;-76
2022/10/10 10:00:41;;;;;;;21.67;20.27;;;;;;;;;;5137804;27;20423;-80
2022/10/10 10:03:15;;;;;;;21.93;20.37;;;;;;;;;;5145711;27;20959;-82
2022/10/10 10:05:44;;;;;;;22.53;21.23;;;;;;;;;;5143509;27;20468;-87
2022/10/10 10:08:24;;;;;;;21.47;20.13;;;;;;;;;;5130602;27;20453;-85
2022/10/10 10:10:56;;;;;;;21.53;20.23;;;;;;;;;;5128060;27;20440;-85
2022/10/10 10:13:25;;;;;;;22.77;21.23;;;;;;;;;;5139051;27;20466;-81
2022/10/10 10:15:57;;;;;;;21.10;19.60;;;;;;;;;;5142795;27;20455;-81
2022/10/10 10:18:27;;;;;;;20.23;18.77;;;;;;;;;;5143261;27;20897;-82
2022/10/10 10:21:08;;;;;;;19.80;18.50;;;;;;;;;;5144698;27;20444;-82
2022/10/10 10:23:36;;;;;;;20.83;19.40;;;;;;;;;;5144880;27;20455;-86
2022/10/10 10:26:05;;;;;;;20.13;18.70;;;;;;;;;;5142254;27;20469;-75
2022/10/10 10:28:33;;;;;;;21.63;19.50;;;;;;;;;;5141497;27;20421;-86
2022/10/10 10:31:01;;;;;;;20.63;19.17;;;;;;;;;;5143414;27;20431;-86
2022/10/10 10:33:36;;;;;;;20.00;18.70;;;;;;;;;;5143021;27;20452;-86
2022/10/10 10:36:09;;;;;;;20.20;18.93;;;;;;;;;;5143916;27;20401;-86
2022/10/10 10:38:42;;;;;;;20.30;19.00;;;;;;;;;;5136656;27;20457;-76
2022/10/10 10:41:14;;;;;;;20.17;18.97;;;;;;;;;;5135371;27;20838;-76
2022/10/10 10:43:48;;;;;;;21.67;20.20;;;;;;;;;;5135013;27;20972;-75
2022/10/10 10:46:21;;;;;;;20.60;19.10;;;;;;;;;;5133560;27;20427;-76
2022/10/10 10:48:53;;;;;;;20.07;18.77;;;;;;;;;;5134549;27;20463;-76
2022/10/10 10:51:45;;;;;;;20.50;19.20;;;;;;;;;;5135294;27;20432;-75
2022/10/10 10:54:19;;;;;;;20.77;19.20;;;;;;;;;;5096520;27;20446;-76
2022/10/10 10:56:51;;;;;;;20.67;19.40;;;;;;;;;;5135447;27;20442;-75
2022/10/10 10:59:28;;;;;;;21.37;20.07;;;;;;;;;;5135740;27;20427;-81
2022/10/10 11:02:00;;;;;;;20.63;19.23;;;;;;;;;;5134998;27;20467;-74
2022/10/10 11:04:36;;;;;;;22.23;20.53;;;;;;;;;;5134960;27;20527;-74
2022/10/10 11:07:08;;;;;;;20.70;19.13;;;;;;;;;;5135789;27;20403;-75
2022/10/10 11:09:37;;;;;;;21.57;19.97;;;;;;;;;;5137021;27;20523;-74
2022/10/10 11:12:12;;;;;;;20.37;19.17;;;;;;;;;;5134059;27;20951;-75
2022/10/10 11:14:46;;;;;;;21.03;19.77;;;;;;;;;;5135966;27;20467;-74
2022/10/10 11:17:18;;;;;;;20.40;19.10;;;;;;;;;;5135366;27;20968;-75
2022/10/10 11:19:48;;;;;;;21.23;19.53;;;;;;;;;;5135055;27;20490;-75
2022/10/10 11:22:17;;;;;;;20.63;19.40;;;;;;;;;;5134122;27;20488;-75
2022/10/10 11:24:47;;;;;;;21.30;19.90;;;;;;;;;;5135250;27;20444;-75
2022/10/10 11:27:18;;;;;;;22.20;20.83;;;;;;;;;;5134661;27;20951;-75
2022/10/10 11:29:51;;;;;;;21.47;20.13;;;;;;;;;;5134694;27;20439;-75
2022/10/10 11:32:23;;;;;;;21.60;20.40;;;;;;;;;;5133697;27;20932;-75
2022/10/10 11:34:55;;;;;;;22.03;20.57;;;;;;;;;;5134532;27;20430;-75
2022/10/10 11:37:26;;;;;;;20.53;19.37;;;;;;;;;;5134657;27;20443;-75
2022/10/10 11:39:56;;;;;;;20.87;19.70;;;;;;;;;;5135199;27;20429;-76
2022/10/10 11:42:25;;;;;;;21.03;19.60;;;;;;;;;;5132497;27;20484;-75
2022/10/10 11:44:56;;;;;;;21.23;19.83;;;;;;;;;;5134161;27;20435;-77
2022/10/10 11:47:29;;;;;;;21.30;19.80;;;;;;;;;;5134170;27;20431;-75
2022/10/10 11:49:58;;;;;;;22.23;20.83;;;;;;;;;;5133739;27;20793;-75
2022/10/10 11:52:30;;;;;;;22.23;20.53;;;;;;;;;;5132987;27;20463;-75
2022/10/10 11:54:59;;;;;;;23.87;21.63;;;;;;;;;;5133616;27;20469;-75
2022/10/10 11:57:31;;;;;;;21.60;20.40;;;;;;;;;;5134765;28;20440;-75
2022/10/10 12:00:03;;;;;;;21.80;20.50;;;;;;;;;;5134269;28;20890;-75
2022/10/10 12:02:33;;;;;;;20.60;19.40;;;;;;;;;;5134109;27;20496;-75
2022/10/10 12:05:01;;;;;;;21.33;20.10;;;;;;;;;;5134658;28;20497;-75
2022/10/10 12:07:30;;;;;;;22.13;20.77;;;;;;;;;;5134405;28;20461;-75
2022/10/10 12:09:59;;;;;;;21.40;20.17;;;;;;;;;;5134495;27;20442;-75
2022/10/10 12:12:28;;;;;;;21.90;20.50;;;;;;;;;;5133134;27;20441;-76
2022/10/10 12:14:59;;;;;;;21.73;20.53;;;;;;;;;;5134238;28;20446;-76
2022/10/10 12:17:29;;;;;;;21.80;20.50;;;;;;;;;;5135613;27;20442;-75
2022/10/10 12:20:09;;;;;;;22.20;20.80;;;;;;;;;;5138587;27;20452;-75
2022/10/10 12:22:36;;;;;;;22.27;20.77;;;;;;;;;;5137655;27;20487;-76
2022/10/10 12:25:07;;;;;;;22.37;20.97;;;;;;;;;;5137960;27;20468;-75
2022/10/10 12:27:44;;;;;;;21.93;20.83;;;;;;;;;;5138529;27;20441;-76
2022/10/10 12:30:24;;;;;;;23.40;22.10;;;;;;;;;;5138630;27;20456;-76
2022/10/10 12:32:53;;;;;;;22.43;21.10;;;;;;;;;;5137751;27;20469;-75
2022/10/10 12:35:38;;;;;;;21.63;20.43;;;;;;;;;;5152465;27;20475;-75
2022/10/10 12:38:30;;;;;;;22.63;21.33;;;;;;;;;;5158616;27;20438;-75
2022/10/10 12:41:18;;;;;;;22.70;21.40;;;;;;;;;;5158151;27;20439;-78
2022/10/10 12:43:52;;;;;;;22.47;21.07;;;;;;;;;;5158480;27;20495;-76
2022/10/10 12:46:29;;;;;;;22.97;21.57;;;;;;;;;;5158661;27;20450;-75
2022/10/10 12:48:59;;;;;;;22.43;20.83;;;;;;;;;;5158744;27;20449;-75
2022/10/10 12:51:29;;;;;;;22.00;20.60;;;;;;;;;;5158096;27;20454;-75
2022/10/10 12:53:57;;;;;;;21.53;20.30;;;;;;;;;;5158286;27;21045;-75
2022/10/10 12:56:41;;;;;;;21.83;20.50;;;;;;;;;;5158756;27;20441;-75
2022/10/10 12:59:20;;;;;;;21.10;19.90;;;;;;;;;;5158521;27;20507;-75
2022/10/10 13:01:51;;;;;;;23.20;21.43;;;;;;;;;;5157529;27;20481;-75
2022/10/10 13:04:19;;;;;;;22.13;20.50;;;;;;;;;;5158477;27;20460;-75
2022/10/10 13:06:49;;;;;;;21.20;20.00;;;;;;;;;;5158051;27;20469;-75
2022/10/10 13:09:19;;;;;;;21.53;20.20;;;;;;;;;;5158175;27;20392;-74
2022/10/10 13:11:53;;;;;;;22.00;20.60;;;;;;;;;;5157727;27;20816;-74
2022/10/10 13:14:20;;;;;;;21.53;20.33;;;;;;;;;;5157724;27;20481;-76
2022/10/10 13:16:48;;;;;;;21.50;20.30;;;;;;;;;;5157431;27;20533;-75
2022/10/10 13:19:19;;;;;;;21.73;20.33;;;;;;;;;;5157689;27;20451;-75
2022/10/10 13:21:49;;;;;;;21.50;20.00;;;;;;;;;;5157394;27;20449;-75
2022/10/10 13:24:17;;;;;;;22.30;20.90;;;;;;;;;;5157925;27;20461;-75
2022/10/10 13:26:46;;;;;;;21.97;20.47;;;;;;;;;;5157768;27;20920;-75
2022/10/10 13:29:27;;;;;;;21.53;20.23;;;;;;;;;;5157378;27;20518;-75
2022/10/10 13:31:58;;;;;;;22.20;20.90;;;;;;;;;;5158847;27;20449;-75
2022/10/10 13:34:27;;;;;;;22.37;20.87;;;;;;;;;;5159385;27;20432;-75
2022/10/10 13:36:56;;;;;;;22.13;20.73;;;;;;;;;;5157347;27;20412;-74
2022/10/10 13:39:25;;;;;;;22.50;21.10;;;;;;;;;;5157098;27;20842;-75
2022/10/10 13:41:53;;;;;;;23.37;21.63;;;;;;;;;;5157013;27;20439;-74
2022/10/10 13:44:22;;;;;;;22.63;21.27;;;;;;;;;;5157308;27;20826;-74
2022/10/10 13:46:50;;;;;;;21.27;20.03;;;;;;;;;;5157450;27;20449;-74
2022/10/10 13:49:22;;;;;;;22.50;20.77;;;;;;;;;;5156708;27;20475;-74
2022/10/10 13:51:54;;;;;;;22.90;21.43;;;;;;;;;;5156875;27;20437;-76
2022/10/10 13:54:39;;;;;;;23.07;21.37;;;;;;;;;;5157043;27;20479;-74
2022/10/10 13:57:11;;;;;;;22.17;20.77;;;;;;;;;;5157502;27;20959;-74
2022/10/10 13:59:39;;;;;;;22.00;20.50;;;;;;;;;;5157824;27;20406;-74
2022/10/10 14:02:13;;;;;;;21.70;20.30;;;;;;;;;;5155930;27;20974;-75
2022/10/10 14:04:45;;;;;;;23.07;21.43;;;;;;;;;;5157320;27;20471;-74
2022/10/10 14:07:14;;;;;;;22.10;20.67;;;;;;;;;;5157871;27;20428;-74
2022/10/10 14:09:44;;;;;;;22.90;21.50;;;;;;;;;;5157210;27;20908;-74
2022/10/10 14:12:16;;;;;;;23.53;21.83;;;;;;;;;;5155640;27;20468;-73
2022/10/10 14:14:45;;;;;;;23.30;21.70;;;;;;;;;;5157356;27;20444;-74
2022/10/10 14:17:12;;;;;;;21.90;20.63;;;;;;;;;;5156972;27;20447;-73
2022/10/10 14:19:40;;;;;;;22.47;21.03;;;;;;;;;;5157493;27;20441;-76
2022/10/10 14:22:07;;;;;;;22.80;21.40;;;;;;;;;;5155849;27;20468;-74
2022/10/10 14:24:34;;;;;;;23.67;21.80;;;;;;;;;;5156919;27;20451;-74
2022/10/10 14:27:08;;;;;;;23.23;21.80;;;;;;;;;;5156611;27;20434;-74
2022/10/10 14:29:35;;;;;;;26.87;24.87;;;;;;;;;;5157145;27;20890;-74
2022/10/10 14:32:02;;;;;;;22.23;20.70;;;;;;;;;;5155574;27;20473;-76
2022/10/10 14:34:30;;;;;;;23.03;21.13;;;;;;;;;;5156561;27;20462;-74
2022/10/10 14:36:57;;;;;;;22.93;21.53;;;;;;;;;;5156678;27;20445;-74
2022/10/10 14:39:24;;;;;;;21.33;20.03;;;;;;;;;;5155844;27;20450;-74
2022/10/10 14:41:52;;;;;;;23.50;22.10;;;;;;;;;;5155264;27;20452;-75
2022/10/10 14:44:20;;;;;;;22.07;20.77;;;;;;;;;;5156178;27;20487;-74
2022/10/10 14:46:48;;;;;;;23.10;21.50;;;;;;;;;;5156750;27;20463;-74